Time;durP1;ratioP1;P1;durP2;ratioP2;P2;SDS_P1;SDS_P2;PMS_P1;PMS_P2;Temp;Humidity;BMP_temperature;BMP_pressure;BME280_temperature;BME280_humidity;BME280_pressure;Samples;Min_cycle;Max_cycle;Signal;HPM_P1;HPM_P2
2022/01/08 00:00:30;;;;;;;22.83;11.98;;;-3.80;99.90;;;;;;5038094;28;20025;-91
2022/01/08 00:02:56;;;;;;;26.65;12.63;;;-3.90;99.90;;;;;;5038077;28;20435;-91
2022/01/08 00:05:22;;;;;;;32.50;13.57;;;-3.90;99.90;;;;;;5038927;28;20029;-91
2022/01/08 00:07:48;;;;;;;31.48;12.95;;;-3.90;99.90;;;;;;5037935;28;20540;-91
2022/01/08 00:10:14;;;;;;;31.63;13.38;;;-3.90;99.90;;;;;;5055726;28;20029;-91
2022/01/08 00:12:40;;;;;;;30.52;13.73;;;-3.90;99.90;;;;;;5037822;28;20043;-91
2022/01/08 00:15:08;;;;;;;29.58;14.20;;;-3.90;99.90;;;;;;5037806;28;20021;-91
2022/01/08 00:17:37;;;;;;;34.28;15.45;;;-3.90;99.90;;;;;;5037685;28;20112;-91
2022/01/08 00:20:05;;;;;;;42.70;18.65;;;-3.90;99.90;;;;;;5037947;28;20033;-91
2022/01/08 00:22:31;;;;;;;37.25;17.38;;;-3.90;99.90;;;;;;5025942;28;20030;-90
2022/01/08 00:24:56;;;;;;;52.20;19.08;;;-4.00;99.90;;;;;;5017837;28;20060;-90
2022/01/08 00:27:23;;;;;;;44.38;17.10;;;-4.00;99.90;;;;;;5018072;28;20033;-90
2022/01/08 00:29:49;;;;;;;74.93;33.50;;;-3.90;99.90;;;;;;5017488;28;20492;-90
2022/01/08 00:32:15;;;;;;;75.38;35.78;;;-4.00;99.90;;;;;;5017983;28;20021;-91
2022/01/08 00:34:42;;;;;;;49.75;23.90;;;-3.90;99.90;;;;;;5018521;28;20049;-90
2022/01/08 00:37:09;;;;;;;68.35;32.63;;;-3.90;99.90;;;;;;5017511;28;20025;-90
2022/01/08 00:39:36;;;;;;;45.63;21.52;;;-4.00;99.90;;;;;;5017087;28;20021;-90
2022/01/08 00:42:02;;;;;;;34.30;17.08;;;-4.00;99.90;;;;;;5018152;28;20415;-90
2022/01/08 00:44:28;;;;;;;32.20;15.68;;;-4.00;99.90;;;;;;5034955;28;20026;-90
2022/01/08 00:46:54;;;;;;;28.73;13.00;;;-4.00;99.90;;;;;;5035168;28;20041;-90
2022/01/08 00:49:19;;;;;;;29.42;13.23;;;-4.00;99.90;;;;;;5017384;28;20099;-91
2022/01/08 00:51:45;;;;;;;29.80;12.52;;;-4.10;99.90;;;;;;5017355;28;20113;-90
2022/01/08 00:54:11;;;;;;;22.58;10.40;;;-4.10;99.90;;;;;;5017518;28;20029;-90
2022/01/08 00:56:36;;;;;;;22.48;11.10;;;-4.10;99.90;;;;;;5021149;28;20475;-90
2022/01/08 00:59:04;;;;;;;27.00;12.38;;;-4.00;99.90;;;;;;5037066;28;20381;-90
2022/01/08 01:01:30;;;;;;;24.42;10.82;;;-4.00;99.90;;;;;;5054698;28;20028;-90
2022/01/08 01:03:56;;;;;;;23.83;10.95;;;-4.10;99.90;;;;;;5054554;28;20044;-90
2022/01/08 01:06:22;;;;;;;24.73;10.15;;;-4.10;99.90;;;;;;5054661;28;20472;-90
2022/01/08 01:08:48;;;;;;;23.30;11.27;;;-4.10;99.90;;;;;;5036683;28;20021;-91
2022/01/08 01:11:14;;;;;;;25.10;10.23;;;-4.10;99.90;;;;;;5036974;28;20029;-90
2022/01/08 01:13:40;;;;;;;24.52;11.40;;;-4.10;99.90;;;;;;5036875;28;20021;-90
2022/01/08 01:16:06;;;;;;;28.48;11.85;;;-4.10;99.90;;;;;;5036921;28;20032;-90
2022/01/08 01:18:32;;;;;;;21.05;9.95;;;-4.10;99.90;;;;;;5036676;28;20025;-90
2022/01/08 01:20:58;;;;;;;26.63;10.55;;;-4.20;99.90;;;;;;5036795;28;20021;-90
2022/01/08 01:23:35;;;;;;;30.13;12.30;;;-4.20;99.90;;;;;;5036705;28;20025;-90
2022/01/08 01:26:04;;;;;;;27.00;11.68;;;-4.20;99.90;;;;;;5037507;28;20029;-90
2022/01/08 01:28:56;;;;;;;25.80;11.23;;;-4.30;99.90;;;;;;5036623;28;20025;-90
2022/01/08 01:47:17;;;;;;;30.52;14.10;;;-4.30;99.90;;;;;;5054512;28;20032;-90
2022/01/08 01:49:46;;;;;;;45.78;18.55;;;-4.30;99.90;;;;;;5054000;28;20060;-90
2022/01/08 01:52:17;;;;;;;39.17;17.05;;;-4.20;99.90;;;;;;5038726;28;20035;-90
2022/01/08 01:54:43;;;;;;;34.25;16.15;;;-4.20;99.90;;;;;;5040532;28;20017;-89
2022/01/08 01:57:12;;;;;;;44.58;18.75;;;-4.20;99.90;;;;;;5040448;28;20025;-90
2022/01/08 01:59:38;;;;;;;39.00;17.33;;;-4.20;99.90;;;;;;5040312;28;20025;-90
2022/01/08 02:02:04;;;;;;;45.22;19.25;;;-4.30;99.90;;;;;;5040270;28;20382;-89
2022/01/08 02:04:30;;;;;;;50.00;17.98;;;-4.30;99.90;;;;;;5040223;28;20387;-90
2022/01/08 02:06:56;;;;;;;41.60;18.92;;;-4.30;99.90;;;;;;5057845;28;20021;-90
2022/01/08 02:09:22;;;;;;;53.13;20.08;;;-4.20;99.90;;;;;;5039982;28;20021;-90
2022/01/08 02:12:07;;;;;;;49.85;21.85;;;-4.30;99.90;;;;;;5040213;28;20021;-90
2022/01/08 02:14:36;;;;;;;55.65;20.70;;;-4.30;99.90;;;;;;5040275;28;20021;-90
2022/01/08 02:17:07;;;;;;;50.80;21.90;;;-4.30;99.90;;;;;;5039858;28;20025;-89
2022/01/08 02:19:32;;;;;;;;;;;-4.30;99.90;;;;;;5040417;28;20021;-90
2022/01/08 02:22:01;;;;;;;50.50;19.67;;;-4.30;99.90;;;;;;5039909;28;20298;-90
2022/01/08 02:24:27;;;;;;;56.78;23.02;;;-4.40;99.90;;;;;;5039917;28;20175;-89
2022/01/08 02:26:54;;;;;;;57.83;25.08;;;-4.40;99.90;;;;;;5039748;28;20383;-90
2022/01/08 02:29:21;;;;;;;43.38;19.60;;;-4.40;99.90;;;;;;5039716;28;20417;-90
2022/01/08 02:32:06;;;;;;;42.53;18.10;;;-4.40;99.90;;;;;;5077460;28;20078;-90
2022/01/08 02:34:32;;;;;;;38.58;17.63;;;-4.40;99.90;;;;;;5059736;28;20540;-89
2022/01/08 02:36:59;;;;;;;40.92;17.33;;;-4.40;99.90;;;;;;5059371;28;20078;-90
2022/01/08 02:39:26;;;;;;;36.50;16.40;;;-4.40;99.90;;;;;;5055670;28;20448;-90
2022/01/08 02:41:56;;;;;;;35.10;16.48;;;-4.30;99.90;;;;;;5039831;28;20029;-90
2022/01/08 02:44:23;;;;;;;32.92;15.60;;;-4.30;99.90;;;;;;5039568;28;20568;-90
2022/01/08 02:46:49;;;;;;;41.53;18.50;;;-4.30;99.90;;;;;;5039342;28;20032;-90
2022/01/08 02:49:15;;;;;;;41.40;17.85;;;-4.30;99.90;;;;;;5039417;28;20117;-89
2022/01/08 02:51:41;;;;;;;35.17;15.95;;;-4.40;99.90;;;;;;5039457;28;20032;-89
2022/01/08 02:54:11;;;;;;;34.45;14.35;;;-4.30;99.90;;;;;;5057187;28;20017;-90
2022/01/08 02:56:41;;;;;;;29.92;14.38;;;-4.30;99.90;;;;;;5039483;28;20033;-90
2022/01/08 02:59:07;;;;;;;35.35;16.38;;;-4.30;99.90;;;;;;5039070;28;20025;-89
2022/01/08 03:01:34;;;;;;;34.13;16.05;;;-4.40;99.90;;;;;;5039276;28;20119;-90
2022/01/08 03:04:00;;;;;;;31.17;15.70;;;-4.40;99.90;;;;;;5038528;28;20123;-90
2022/01/08 03:06:26;;;;;;;30.85;14.20;;;-4.40;99.90;;;;;;5039395;28;20131;-89
2022/01/08 03:08:52;;;;;;;31.65;14.15;;;-4.40;99.90;;;;;;5038801;28;20020;-90
2022/01/08 03:11:18;;;;;;;30.02;14.18;;;-4.40;99.90;;;;;;5039162;28;20029;-89
2022/01/08 03:13:44;;;;;;;33.10;14.85;;;-4.40;99.90;;;;;;5038966;28;20082;-89
2022/01/08 03:16:09;;;;;;;31.17;14.38;;;-4.40;99.90;;;;;;5038847;28;20032;-90
2022/01/08 03:18:37;;;;;;;29.73;13.80;;;-4.40;99.90;;;;;;5038852;28;20024;-90
2022/01/08 03:21:13;;;;;;;28.10;14.18;;;-4.50;99.90;;;;;;5038794;28;20025;-90
2022/01/08 03:23:47;;;;;;;29.73;13.52;;;-4.50;99.90;;;;;;5038825;28;20048;-89
2022/01/08 03:26:13;;;;;;;24.25;12.93;;;-4.50;99.90;;;;;;5038696;28;20056;-89
2022/01/08 03:28:39;;;;;;;28.42;12.63;;;-4.50;99.90;;;;;;5038657;28;20056;-89
2022/01/08 03:31:04;;;;;;;33.53;15.18;;;-4.50;99.90;;;;;;5023883;28;20526;-90
2022/01/08 03:33:30;;;;;;;28.42;13.15;;;-4.50;99.90;;;;;;5019083;28;20029;-89
2022/01/08 03:35:56;;;;;;;29.55;14.13;;;-4.50;99.90;;;;;;5036230;28;20022;-90
2022/01/08 03:38:22;;;;;;;31.00;15.63;;;-4.60;99.90;;;;;;5018745;28;20030;-90
2022/01/08 03:40:47;;;;;;;38.90;17.70;;;-4.50;99.90;;;;;;5019444;28;20479;-90
2022/01/08 03:43:13;;;;;;;37.35;18.67;;;-4.50;99.90;;;;;;5018699;28;20039;-89
2022/01/08 03:45:39;;;;;;;44.50;19.58;;;-4.50;99.90;;;;;;5018477;28;20033;-90
2022/01/08 03:50:48;;;;;;;41.15;20.38;;;-4.60;99.90;;;;;;5036312;28;20080;-89
2022/01/08 03:53:14;;;;;;;43.58;19.75;;;-4.50;99.90;;;;;;5018620;28;20025;-90
2022/01/08 03:55:40;;;;;;;45.35;19.55;;;-4.50;99.90;;;;;;5057920;28;20031;-89
2022/01/08 03:58:05;;;;;;;47.00;20.92;;;-4.50;99.90;;;;;;5057990;28;20021;-89
2022/01/08 04:00:32;;;;;;;47.47;21.20;;;-4.50;99.90;;;;;;5058007;28;20036;-89
2022/01/08 04:02:57;;;;;;;48.85;22.60;;;-4.60;99.90;;;;;;5047603;28;20074;-89
2022/01/08 04:05:23;;;;;;;46.40;22.25;;;-4.60;99.90;;;;;;5038176;28;20028;-89
2022/01/08 04:07:49;;;;;;;39.95;19.67;;;-4.70;99.90;;;;;;5037923;28;20029;-89
2022/01/08 04:10:14;;;;;;;38.88;19.05;;;-4.60;99.90;;;;;;5055873;28;20025;-89
2022/01/08 04:12:44;;;;;;;37.60;19.33;;;-4.70;99.90;;;;;;5037844;28;20116;-90
2022/01/08 04:15:33;;;;;;;42.45;19.05;;;-4.60;99.90;;;;;;5037028;28;20423;-90
2022/01/08 04:17:59;;;;;;;32.63;17.63;;;-4.70;99.90;;;;;;5055343;28;20025;-89
2022/01/08 04:20:25;;;;;;;39.05;18.40;;;-4.60;99.90;;;;;;5037673;28;20104;-90
2022/01/08 04:22:51;;;;;;;34.95;17.25;;;-4.60;99.90;;;;;;5037602;28;20471;-89
2022/01/08 04:25:20;;;;;;;34.72;16.77;;;-4.70;99.90;;;;;;5037827;28;20025;-89
2022/01/08 04:27:46;;;;;;;36.47;17.05;;;-4.70;99.90;;;;;;5037606;28;20025;-90
2022/01/08 04:30:12;;;;;;;34.08;17.65;;;-4.70;99.90;;;;;;5037447;28;20048;-89
2022/01/08 04:32:39;;;;;;;34.75;18.55;;;-4.70;99.90;;;;;;5037541;28;20032;-89
2022/01/08 04:35:05;;;;;;;38.38;17.00;;;-4.70;99.90;;;;;;5038147;28;20017;-89
2022/01/08 04:37:31;;;;;;;36.10;16.77;;;-4.70;99.90;;;;;;5037291;28;20025;-89
2022/01/08 04:39:56;;;;;;;34.20;16.55;;;-4.70;99.90;;;;;;5037234;28;20047;-89
2022/01/08 04:42:22;;;;;;;34.50;16.27;;;-4.70;99.90;;;;;;5037539;28;20497;-89
2022/01/08 04:44:48;;;;;;;33.30;16.75;;;-4.70;99.90;;;;;;5037212;28;20028;-89
2022/01/08 04:47:14;;;;;;;32.67;15.80;;;-4.80;99.90;;;;;;5037217;28;20110;-90
2022/01/08 04:49:40;;;;;;;33.35;17.30;;;-4.80;99.90;;;;;;5037177;28;20083;-89
2022/01/08 04:52:06;;;;;;;40.60;20.67;;;-4.80;99.90;;;;;;5037065;28;20025;-89
2022/01/08 04:54:31;;;;;;;41.45;20.27;;;-4.80;99.90;;;;;;5037164;28;20360;-90
2022/01/08 04:56:57;;;;;;;52.10;22.90;;;-4.80;99.90;;;;;;5038048;28;20060;-90
2022/01/08 04:59:23;;;;;;;49.67;21.48;;;-4.80;99.90;;;;;;5037072;28;20111;-89
2022/01/08 05:01:49;;;;;;;45.17;21.58;;;-4.90;99.90;;;;;;5036691;28;20035;-89
2022/01/08 05:04:14;;;;;;;45.13;22.42;;;-4.90;99.90;;;;;;5036980;28;20112;-89
2022/01/08 05:06:40;;;;;;;37.00;18.40;;;-4.90;99.90;;;;;;5037073;28;20119;-89
2022/01/08 05:09:06;;;;;;;26.80;15.05;;;-4.90;99.90;;;;;;5030875;28;20057;-89
2022/01/08 05:11:32;;;;;;;29.50;15.48;;;-4.90;99.90;;;;;;5017107;28;20029;-90
2022/01/08 05:13:58;;;;;;;28.50;16.40;;;-4.90;99.90;;;;;;5017007;28;20025;-89
2022/01/08 05:16:25;;;;;;;29.40;16.55;;;-4.90;99.90;;;;;;5016930;28;20044;-89
2022/01/08 05:18:54;;;;;;;28.45;13.93;;;-4.90;99.90;;;;;;5016950;28;20029;-89
2022/01/08 05:21:29;;;;;;;27.30;13.88;;;-4.90;99.90;;;;;;5017181;28;20029;-88
2022/01/08 05:23:57;;;;;;;28.95;13.70;;;-4.90;99.90;;;;;;5016768;28;20065;-89
2022/01/08 05:26:25;;;;;;;26.85;15.43;;;-4.80;99.90;;;;;;5016456;28;20026;-89
2022/01/08 05:28:51;;;;;;;36.70;17.85;;;-4.80;99.90;;;;;;5017105;28;20029;-89
2022/01/08 05:31:21;;;;;;;32.10;16.27;;;-4.80;99.90;;;;;;5016571;28;20500;-90
2022/01/08 05:33:52;;;;;;;28.48;14.73;;;-4.80;99.90;;;;;;5016811;28;20029;-89
2022/01/08 05:36:17;;;;;;;;;;;-4.80;99.90;;;;;;5017306;28;20029;-88
2022/01/08 05:38:43;;;;;;;40.25;18.10;;;-4.80;99.90;;;;;;5016601;28;19912;-89
2022/01/08 05:41:10;;;;;;;50.45;20.48;;;-4.80;99.90;;;;;;5016789;28;20467;-89
2022/01/08 05:43:35;;;;;;;46.90;19.95;;;-4.80;99.90;;;;;;5040439;28;20481;-89
2022/01/08 05:46:01;;;;;;;46.58;20.90;;;-4.80;99.90;;;;;;5056644;28;20032;-89
2022/01/08 05:48:28;;;;;;;56.78;23.10;;;-4.80;99.90;;;;;;5037238;28;20025;-89
2022/01/08 05:50:53;;;;;;;59.60;24.30;;;-4.80;99.90;;;;;;5036378;28;20025;-89
2022/01/08 05:53:20;;;;;;;60.17;25.73;;;-4.80;99.90;;;;;;5036585;28;20375;-89
2022/01/08 05:55:46;;;;;;;59.47;25.45;;;-4.80;99.90;;;;;;5036829;28;20127;-89
2022/01/08 05:58:13;;;;;;;64.95;27.40;;;-4.80;99.90;;;;;;5048792;28;20024;-89
2022/01/08 06:00:39;;;;;;;66.47;25.38;;;-4.80;99.90;;;;;;5056206;28;20028;-89
2022/01/08 06:03:05;;;;;;;60.78;25.30;;;-4.80;99.90;;;;;;5036345;28;20391;-89
2022/01/08 06:05:30;;;;;;;60.75;24.92;;;-4.80;99.90;;;;;;5036539;28;20036;-90
2022/01/08 06:07:56;;;;;;;64.85;24.02;;;-4.80;99.90;;;;;;5036414;28;20471;-90
2022/01/08 06:10:22;;;;;;;56.38;23.75;;;-4.70;99.90;;;;;;5036135;28;20029;-89
2022/01/08 06:12:48;;;;;;;49.30;21.13;;;-4.70;99.90;;;;;;5036290;28;20044;-90
2022/01/08 06:15:15;;;;;;;52.55;21.77;;;-4.70;99.90;;;;;;5036187;28;20032;-90
2022/01/08 06:17:40;;;;;;;62.35;25.27;;;-4.70;99.90;;;;;;5036221;28;20017;-89
2022/01/08 06:20:07;;;;;;;71.68;30.73;;;-4.70;99.90;;;;;;5036131;28;20029;-89
2022/01/08 06:22:33;;;;;;;67.20;28.23;;;-4.60;99.90;;;;;;5036799;28;20083;-90
2022/01/08 06:24:58;;;;;;;62.50;24.75;;;-4.60;99.90;;;;;;5036124;28;20025;-90
2022/01/08 06:27:24;;;;;;;61.17;26.77;;;-4.60;99.90;;;;;;5036395;28;20025;-89
2022/01/08 06:29:50;;;;;;;58.28;24.38;;;-4.60;99.90;;;;;;5041323;28;20061;-90
2022/01/08 06:32:16;;;;;;;60.38;26.38;;;-4.50;99.90;;;;;;5072679;28;20051;-90
2022/01/08 06:34:43;;;;;;;52.22;25.35;;;-4.50;99.90;;;;;;5072698;28;20016;-90
2022/01/08 06:37:09;;;;;;;67.30;31.52;;;-4.50;99.90;;;;;;5072866;28;20021;-92
2022/01/08 06:39:34;;;;;;;54.25;26.17;;;-4.40;99.90;;;;;;5076330;28;20028;-91
2022/01/08 14:22:27;;;;;;;27.50;10.07;;;-1.60;98.80;;;;;;5153993;27;20367;-92
2022/01/08 14:24:54;;;;;;;28.15;11.65;;;-1.60;99.20;;;;;;5131924;28;20085;-96
2022/01/08 14:27:22;;;;;;;26.95;10.25;;;-1.60;99.40;;;;;;5131946;28;20076;-96
2022/01/08 14:30:11;;;;;;;24.10;11.43;;;-1.60;99.60;;;;;;5131740;28;20019;-96
2022/01/08 14:32:37;;;;;;;25.10;9.63;;;-1.60;99.60;;;;;;5132004;28;20030;-96
2022/01/08 14:35:04;;;;;;;23.58;9.68;;;-1.60;99.90;;;;;;5131703;28;20151;-96
2022/01/08 14:37:37;;;;;;;23.83;10.55;;;-1.70;99.90;;;;;;5131346;28;20020;-96
2022/01/08 14:40:17;;;;;;;23.17;10.40;;;-1.70;99.90;;;;;;5131999;28;20027;-96
2022/01/08 14:42:43;;;;;;;33.60;15.25;;;-1.70;99.90;;;;;;5131368;28;20367;-96
2022/01/08 14:45:17;;;;;;;53.97;21.67;;;-1.70;99.90;;;;;;5131509;28;20089;-96
2022/01/08 14:47:44;;;;;;;134.27;47.50;;;-1.70;99.90;;;;;;5131372;28;20416;-96
2022/01/08 14:50:15;;;;;;;59.33;26.02;;;-1.60;99.90;;;;;;5131570;28;20015;-96
2022/01/08 14:52:42;;;;;;;35.83;15.77;;;-1.60;99.90;;;;;;5131023;28;20030;-96
2022/01/08 14:55:10;;;;;;;30.88;12.82;;;-1.60;99.90;;;;;;5131227;28;20023;-96
2022/01/08 14:57:36;;;;;;;27.05;12.88;;;-1.60;99.90;;;;;;5131137;28;20494;-96
2022/01/08 15:00:07;;;;;;;25.15;10.85;;;-1.60;99.90;;;;;;5131443;28;20024;-96
2022/01/08 15:02:36;;;;;;;26.90;11.73;;;-1.60;99.90;;;;;;5131405;28;20090;-96
2022/01/08 15:05:07;;;;;;;25.30;12.37;;;-1.50;99.90;;;;;;5131159;28;20024;-96
2022/01/08 15:07:34;;;;;;;23.15;12.27;;;-1.50;99.90;;;;;;5131888;28;20070;-96
2022/01/08 15:09:59;;;;;;;26.90;11.63;;;-1.50;99.90;;;;;;5131551;28;20019;-96
2022/01/08 15:12:26;;;;;;;25.17;11.43;;;-1.40;99.90;;;;;;5133131;28;20078;-96
2022/01/08 15:14:53;;;;;;;28.85;11.80;;;-1.40;99.90;;;;;;5131813;28;20027;-96
2022/01/08 15:17:19;;;;;;;23.33;11.23;;;-1.40;99.90;;;;;;5134634;28;20015;-96
2022/01/08 15:19:45;;;;;;;31.40;15.90;;;-1.40;99.90;;;;;;5131324;28;20023;-96
2022/01/08 15:22:10;;;;;;;22.33;11.45;;;-1.30;99.90;;;;;;5131885;28;20099;-96
2022/01/08 15:24:36;;;;;;;29.80;12.45;;;-1.30;99.90;;;;;;5132285;28;20411;-96
2022/01/08 15:27:02;;;;;;;22.83;10.93;;;-1.20;99.90;;;;;;5132154;28;20024;-96
2022/01/08 15:29:29;;;;;;;27.45;14.35;;;-1.20;99.90;;;;;;5132270;28;20042;-96
2022/01/08 15:31:56;;;;;;;22.60;12.10;;;-1.20;99.90;;;;;;5129647;28;20027;-96
2022/01/08 15:34:22;;;;;;;23.65;12.15;;;-1.20;99.90;;;;;;5117761;28;20028;-96
2022/01/08 15:36:49;;;;;;;24.73;12.82;;;-1.10;99.90;;;;;;5118320;28;20034;-96
2022/01/08 15:39:16;;;;;;;23.17;11.75;;;-1.10;99.90;;;;;;5117345;28;20032;-96
2022/01/08 15:41:43;;;;;;;28.27;11.57;;;-1.10;99.90;;;;;;5118189;28;20026;-96
2022/01/08 15:44:09;;;;;;;26.30;11.90;;;-1.10;99.90;;;;;;5119593;28;20028;-96
2022/01/08 15:46:36;;;;;;;24.92;11.65;;;-1.10;99.90;;;;;;5118915;28;20026;-96
2022/01/08 15:49:02;;;;;;;26.50;11.55;;;-1.10;99.90;;;;;;5117104;28;20044;-96
2022/01/08 15:51:28;;;;;;;24.98;12.95;;;-1.10;99.90;;;;;;5117858;28;20031;-96
2022/01/08 15:53:56;;;;;;;27.85;12.73;;;-1.20;99.90;;;;;;5116523;28;20019;-96
2022/01/08 15:56:22;;;;;;;22.92;11.40;;;-1.20;99.90;;;;;;5116693;28;20076;-96
2022/01/08 15:58:47;;;;;;;28.77;11.57;;;-1.20;99.90;;;;;;5116293;28;20537;-96
2022/01/08 16:01:13;;;;;;;20.27;10.57;;;-1.30;99.90;;;;;;5117008;28;20034;-96
2022/01/08 16:03:39;;;;;;;22.90;11.23;;;-1.30;99.90;;;;;;5117401;28;20023;-96
2022/01/08 16:06:05;;;;;;;28.95;12.18;;;-1.40;99.90;;;;;;5117425;28;20454;-96
2022/01/08 16:08:30;;;;;;;22.08;10.88;;;-1.40;99.90;;;;;;5117507;28;20016;-96
2022/01/08 16:10:57;;;;;;;27.27;13.25;;;-1.40;99.90;;;;;;5116438;28;20436;-96
2022/01/08 16:13:24;;;;;;;31.50;13.82;;;-1.50;99.90;;;;;;5116222;28;20028;-96
2022/01/08 16:15:51;;;;;;;27.33;14.30;;;-1.50;99.90;;;;;;5116584;28;20537;-96
2022/01/08 16:18:17;;;;;;;33.97;16.88;;;-1.50;99.90;;;;;;5116476;28;20156;-96
2022/01/08 16:20:45;;;;;;;37.92;17.98;;;-1.50;99.90;;;;;;5115912;28;20097;-96
2022/01/08 16:23:12;;;;;;;24.95;13.60;;;-1.50;99.90;;;;;;5116693;28;20016;-96
2022/01/08 16:25:40;;;;;;;32.22;15.00;;;-1.40;99.90;;;;;;5116151;28;20077;-96
2022/01/08 16:28:06;;;;;;;28.17;13.95;;;-1.50;99.90;;;;;;5116985;28;20478;-96
2022/01/08 16:30:32;;;;;;;29.85;14.95;;;-1.50;99.90;;;;;;5116800;28;20059;-96
2022/01/08 16:32:58;;;;;;;22.60;11.65;;;-1.40;99.90;;;;;;5118007;28;20028;-96
2022/01/08 16:35:25;;;;;;;27.67;12.73;;;-1.40;99.90;;;;;;5116280;28;20143;-96
2022/01/08 16:37:50;;;;;;;26.50;12.50;;;-1.40;99.90;;;;;;5117646;28;20028;-96
2022/01/08 16:40:16;;;;;;;25.75;12.27;;;-1.30;99.90;;;;;;5116829;28;20019;-96
2022/01/08 16:42:42;;;;;;;23.90;11.82;;;-1.30;99.90;;;;;;5116614;28;20028;-96
2022/01/08 16:45:08;;;;;;;35.05;13.70;;;-1.30;99.90;;;;;;5114859;28;20028;-96
2022/01/08 16:47:35;;;;;;;29.00;13.90;;;-1.40;99.90;;;;;;5117720;28;20024;-96
2022/01/08 16:50:01;;;;;;;25.50;12.27;;;-1.40;99.90;;;;;;5116509;28;20028;-96
2022/01/08 16:52:28;;;;;;;26.23;11.82;;;-1.40;99.90;;;;;;5115610;28;20019;-96
2022/01/08 16:54:54;;;;;;;35.63;14.88;;;-1.40;99.90;;;;;;5115508;28;20083;-96
2022/01/08 16:57:20;;;;;;;32.47;14.38;;;-1.30;99.90;;;;;;5116920;28;20051;-96
2022/01/08 16:59:46;;;;;;;36.28;15.07;;;-1.40;99.90;;;;;;5115845;28;20024;-96
2022/01/08 17:02:12;;;;;;;21.98;10.90;;;-1.40;99.90;;;;;;5116393;28;20110;-96
2022/01/08 17:04:38;;;;;;;23.25;10.85;;;-1.40;99.90;;;;;;5116016;28;20025;-96
2022/01/08 17:07:04;;;;;;;21.90;9.68;;;-1.30;99.90;;;;;;5115300;28;20023;-96
2022/01/08 17:09:31;;;;;;;24.10;10.27;;;-1.40;99.90;;;;;;5115671;28;20031;-96
2022/01/08 17:11:58;;;;;;;23.88;10.50;;;-1.40;99.90;;;;;;5115953;28;20111;-96
2022/01/08 17:14:26;;;;;;;19.65;9.02;;;-1.40;99.90;;;;;;5115389;28;20027;-96
2022/01/08 17:16:52;;;;;;;24.30;9.23;;;-1.40;99.90;;;;;;5115600;28;20445;-96
2022/01/08 17:19:19;;;;;;;23.15;8.95;;;-1.40;99.90;;;;;;5114654;28;20035;-96
2022/01/08 17:21:45;;;;;;;16.13;8.25;;;-1.40;99.90;;;;;;5114327;28;20043;-96
2022/01/08 17:24:11;;;;;;;23.67;8.70;;;-1.40;99.90;;;;;;5114590;28;20050;-96
2022/01/08 17:26:37;;;;;;;23.13;10.45;;;-1.40;99.90;;;;;;5114502;28;20077;-96
2022/01/08 17:29:04;;;;;;;26.73;11.45;;;-1.40;99.90;;;;;;5114590;28;20031;-96
2022/01/08 17:31:30;;;;;;;28.15;11.65;;;-1.50;99.90;;;;;;5114648;28;20024;-96
2022/01/08 17:33:55;;;;;;;19.08;10.20;;;-1.50;99.90;;;;;;5114813;28;20480;-96
2022/01/08 17:36:23;;;;;;;23.88;10.98;;;-1.50;99.90;;;;;;5114668;28;20027;-96
2022/01/08 17:38:49;;;;;;;26.27;11.95;;;-1.60;99.90;;;;;;5114395;28;20095;-96
2022/01/08 17:41:15;;;;;;;24.35;10.57;;;-1.60;99.90;;;;;;5114257;28;20096;-96
2022/01/08 17:43:41;;;;;;;20.13;9.38;;;-1.60;99.90;;;;;;5114320;28;20028;-96
2022/01/08 17:46:06;;;;;;;22.58;10.85;;;-1.60;99.90;;;;;;5114268;28;20462;-96
2022/01/08 17:48:32;;;;;;;22.20;11.57;;;-1.60;99.90;;;;;;5114415;28;20024;-96
2022/01/08 17:50:58;;;;;;;22.30;10.77;;;-1.60;99.90;;;;;;5114781;28;20028;-96
2022/01/08 17:53:24;;;;;;;25.20;11.05;;;-1.60;99.90;;;;;;5115047;28;20031;-96
2022/01/08 17:55:50;;;;;;;22.40;10.55;;;-1.60;99.90;;;;;;5113764;28;20024;-96
2022/01/08 17:58:16;;;;;;;15.65;8.40;;;-1.70;99.90;;;;;;5114809;28;20024;-96
2022/01/08 18:00:42;;;;;;;17.58;9.07;;;-1.70;99.90;;;;;;5114714;28;20028;-96
2022/01/08 18:03:09;;;;;;;17.13;8.30;;;-1.70;99.90;;;;;;5114318;28;20034;-96
2022/01/08 18:05:34;;;;;;;16.85;8.32;;;-1.70;99.90;;;;;;5113774;28;20020;-96
2022/01/08 18:08:00;;;;;;;23.08;10.32;;;-1.70;99.90;;;;;;5114239;28;20023;-96
2022/01/08 18:10:26;;;;;;;21.30;9.45;;;-1.60;99.90;;;;;;5114143;28;20393;-96
2022/01/08 18:12:53;;;;;;;19.83;9.98;;;-1.60;99.90;;;;;;5114067;28;20027;-96
2022/01/08 18:15:19;;;;;;;20.90;10.23;;;-1.70;99.90;;;;;;5113702;28;20028;-96
2022/01/08 18:17:46;;;;;;;17.08;8.85;;;-1.70;99.90;;;;;;5114856;28;20031;-96
2022/01/08 18:20:16;;;;;;;19.35;8.63;;;-1.70;99.90;;;;;;5116691;28;20024;-96
2022/01/08 18:22:42;;;;;;;25.70;11.68;;;-1.70;99.90;;;;;;5106897;28;20390;-95
2022/01/08 18:25:09;;;;;;;20.80;8.93;;;-1.70;99.90;;;;;;5093217;28;20071;-96
2022/01/08 18:27:35;;;;;;;14.30;8.23;;;-1.70;99.90;;;;;;5093470;28;20023;-96
2022/01/08 18:30:00;;;;;;;18.33;9.05;;;-1.60;99.90;;;;;;5093053;28;20453;-95
2022/01/08 18:32:27;;;;;;;18.05;9.88;;;-1.70;99.90;;;;;;5110275;28;20031;-94
2022/01/08 18:34:56;;;;;;;16.30;8.10;;;-1.70;99.90;;;;;;5095192;28;20024;-96
2022/01/08 18:37:25;;;;;;;20.95;10.10;;;-1.70;99.90;;;;;;5093276;28;20535;-96
2022/01/08 18:39:51;;;;;;;24.67;10.75;;;-1.70;99.90;;;;;;5093476;28;20122;-95
2022/01/08 18:42:17;;;;;;;57.00;19.95;;;-1.60;99.90;;;;;;5093133;28;20115;-96
2022/01/08 18:44:42;;;;;;;39.28;18.17;;;-1.70;99.90;;;;;;5093151;28;20020;-95
2022/01/08 18:47:08;;;;;;;24.58;10.90;;;-1.70;99.90;;;;;;5092937;28;20029;-95
2022/01/08 18:49:35;;;;;;;18.00;10.10;;;-1.70;99.90;;;;;;5093239;28;20025;-96
2022/01/08 18:52:01;;;;;;;16.95;8.65;;;-1.70;99.90;;;;;;5093089;28;20024;-95
2022/01/08 18:54:27;;;;;;;18.35;8.77;;;-1.70;99.90;;;;;;5093257;28;20028;-95
2022/01/08 18:56:54;;;;;;;20.63;10.35;;;-1.70;99.90;;;;;;5093083;28;20020;-96
2022/01/08 18:59:20;;;;;;;16.88;9.75;;;-1.70;99.90;;;;;;5093047;28;20024;-95
2022/01/08 19:01:46;;;;;;;19.30;8.52;;;-1.70;99.90;;;;;;5092886;28;20501;-95
2022/01/08 19:04:12;;;;;;;24.83;10.10;;;-1.70;99.90;;;;;;5093130;28;20355;-96
2022/01/08 19:06:37;;;;;;;19.63;9.77;;;-1.70;99.90;;;;;;5093191;28;20031;-96
2022/01/08 19:09:04;;;;;;;23.83;10.52;;;-1.70;99.90;;;;;;5097055;28;20028;-95
2022/01/08 19:11:30;;;;;;;29.10;11.43;;;-1.60;99.90;;;;;;5096704;28;20028;-95
2022/01/08 19:13:55;;;;;;;23.52;9.88;;;-1.70;99.90;;;;;;5096973;28;20039;-96
2022/01/08 19:16:21;;;;;;;23.17;9.90;;;-1.70;99.90;;;;;;5097148;28;20427;-95
2022/01/08 19:18:47;;;;;;;26.05;11.30;;;-1.70;99.90;;;;;;5096698;28;20094;-95
2022/01/08 19:21:13;;;;;;;23.00;9.60;;;-1.60;99.90;;;;;;5096581;28;20048;-96
2022/01/08 19:23:39;;;;;;;23.38;11.23;;;-1.70;99.90;;;;;;5097181;28;20115;-95
2022/01/08 19:26:06;;;;;;;31.48;12.43;;;-1.70;99.90;;;;;;5096404;28;20128;-95
2022/01/08 19:28:32;;;;;;;28.35;12.90;;;-1.70;99.90;;;;;;5100902;28;20030;-96
2022/01/08 19:30:58;;;;;;;25.02;10.43;;;-1.70;99.90;;;;;;5105402;28;20118;-96
2022/01/08 19:33:24;;;;;;;20.50;9.27;;;-1.60;99.90;;;;;;5097742;28;20115;-96
2022/01/08 19:35:51;;;;;;;16.05;7.53;;;-1.60;99.90;;;;;;5102543;28;20124;-96
2022/01/08 19:38:17;;;;;;;21.55;10.13;;;-1.60;99.90;;;;;;5099842;28;20473;-95
2022/01/08 19:40:44;;;;;;;18.63;8.77;;;-1.60;99.90;;;;;;5096442;28;20035;-96
2022/01/08 20:17:10;;;;;;;20.45;7.90;;;-1.80;99.90;;;;;;6136442;23;20107;-96
2022/01/08 20:22:42;;;;;;;12.60;6.88;;;-1.80;99.90;;;;;;6027006;23;20040;31
2022/01/08 20:25:13;;;;;;;19.85;7.05;;;-1.80;99.90;;;;;;5350181;23;20063;-96
2022/01/08 20:54:59;;;;;;;15.43;6.65;;;-1.60;99.90;;;;;;4955148;29;20083;-96
2022/01/08 20:57:42;;;;;;;17.63;8.07;;;-1.50;99.90;;;;;;4951705;29;20040;-96
2022/01/08 21:00:08;;;;;;;18.35;7.32;;;-1.50;99.90;;;;;;4948928;29;20039;-96
2022/01/08 21:02:38;;;;;;;14.60;6.22;;;-1.50;99.90;;;;;;4949922;29;20036;-96
2022/01/08 21:05:09;;;;;;;14.50;6.78;;;-1.60;99.90;;;;;;4951240;29;20019;-96
2022/01/08 21:07:35;;;;;;;13.55;6.55;;;-1.60;99.90;;;;;;4949614;29;20121;-96
2022/01/08 21:10:03;;;;;;;15.93;6.55;;;-1.60;99.90;;;;;;4943382;29;20495;-96
2022/01/08 21:12:33;;;;;;;15.50;7.00;;;-1.60;99.90;;;;;;4979322;28;20023;-96
2022/01/08 21:15:00;;;;;;;17.33;7.32;;;-1.60;99.90;;;;;;4944898;29;20030;-96
2022/01/08 21:17:26;;;;;;;17.58;7.00;;;-1.60;99.90;;;;;;4950372;29;20103;-96
2022/01/08 21:19:52;;;;;;;16.67;7.05;;;-1.60;99.90;;;;;;4978123;28;20039;-96
2022/01/08 21:22:19;;;;;;;12.70;6.38;;;-1.60;99.90;;;;;;4946256;29;20067;-96
2022/01/08 21:24:45;;;;;;;16.33;6.57;;;-1.60;99.90;;;;;;4943123;29;20026;-96
2022/01/08 21:27:13;;;;;;;20.17;7.68;;;-1.50;99.90;;;;;;4942526;29;20028;-96
2022/01/08 21:29:39;;;;;;;14.23;7.95;;;-1.50;99.90;;;;;;4941080;29;20024;-96